Terminal Aerodrome Forecast
Issued by NWS

Home | Current Version | Previous Version | Text Only | Print | Product List | Glossary On
Versions: 1 2 3 4 5 6 7 8 9 10 11 12 13 14 15 16 17 18
000
FTUS43 KMQT 070035 AAA
TAFCMX
TAF AMD
KCMX 070035Z 0701/0724 32005KT 1/4SM FU FG VV001
     FM070300 33005KT 1SM FU OVC005
     FM070600 32007KT P6SM BKN025
     FM070900 33008KT P6SM SCT035=

USA.gov is the U.S. government's official web portal to all federal, state and local government web resources and services.